createdAt,value
2023-01-13T00:54:25.745Z,500.00
2023-01-13T00:55:26.711Z,500.00
2023-01-13T00:56:39.615Z,500.00
2023-01-13T00:57:26.685Z,500.00
2023-01-13T00:58:26.685Z,500.00
2023-01-13T00:59:26.666Z,500.00
2023-01-13T01:00:26.663Z,500.00
2023-01-13T01:01:26.785Z,500.00
2023-01-13T01:02:26.684Z,462.00
2023-01-13T01:03:26.635Z,409.00
2023-01-13T01:04:26.621Z,405.00
2023-01-13T01:05:26.613Z,400.00
2023-01-13T01:06:26.618Z,405.00
2023-01-13T01:07:26.597Z,414.00
2023-01-13T01:08:26.589Z,420.00
2023-01-13T01:09:26.572Z,448.00
2023-01-13T01:10:26.587Z,468.00
2023-01-13T01:11:26.586Z,500.00
2023-01-13T01:12:26.560Z,500.00
2023-01-13T01:13:26.547Z,500.00
2023-01-13T01:14:26.532Z,500.00
2023-01-13T01:15:26.525Z,505.00
2023-01-13T01:16:26.619Z,499.00
2023-01-13T01:17:26.506Z,503.00
2023-01-13T01:18:26.512Z,501.00
2023-01-13T01:19:26.484Z,500.00
2023-01-13T01:20:26.491Z,500.00
2023-01-13T01:21:26.477Z,500.00
2023-01-13T01:22:26.516Z,501.00
2023-01-13T01:23:26.456Z,502.00
2023-01-13T01:24:26.455Z,501.00
2023-01-13T01:25:26.431Z,500.00
2023-01-13T01:26:26.465Z,506.00
2023-01-13T01:27:26.412Z,504.00
2023-01-13T01:28:26.408Z,502.00
2023-01-13T01:29:26.409Z,503.00
2023-01-13T01:30:26.393Z,502.00
2023-01-13T01:31:26.436Z,502.00
2023-01-13T01:32:26.369Z,500.00
2023-01-13T01:33:26.363Z,504.00
2023-01-13T01:34:26.354Z,509.00
2023-01-13T01:35:26.341Z,500.00
2023-01-13T01:36:26.337Z,505.00
2023-01-13T01:37:26.328Z,501.00
2023-01-13T01:38:26.326Z,505.00
2023-01-13T01:39:26.323Z,520.00
2023-01-13T01:40:26.302Z,513.00
2023-01-13T01:41:26.293Z,500.00
2023-01-13T01:42:26.308Z,500.00
2023-01-13T01:43:26.280Z,500.00
2023-01-13T01:44:26.272Z,500.00
2023-01-13T01:45:26.258Z,513.00
2023-01-13T01:46:26.292Z,505.00
2023-01-13T01:47:26.236Z,509.00
2023-01-13T01:48:26.227Z,504.00
2023-01-13T01:49:26.223Z,505.00
2023-01-13T01:50:26.223Z,500.00
2023-01-13T01:51:26.206Z,510.00
2023-01-13T01:52:26.213Z,505.00
2023-01-13T01:53:26.181Z,506.00
2023-01-13T01:54:26.173Z,504.00
2023-01-13T01:55:26.177Z,509.00
2023-01-13T01:56:26.158Z,509.00
2023-01-13T01:57:26.147Z,506.00
2023-01-13T01:58:26.164Z,515.00
2023-01-13T01:59:26.128Z,504.00
2023-01-13T02:00:26.117Z,500.00
2023-01-13T02:01:26.229Z,503.00
2023-01-13T02:02:26.210Z,517.00
2023-01-13T02:03:26.103Z,501.00
2023-01-13T02:04:26.084Z,508.00
2023-01-13T02:05:26.073Z,512.00
2023-01-13T02:06:26.107Z,504.00
2023-01-13T02:07:26.056Z,506.00
2023-01-13T02:08:26.048Z,511.00
2023-01-13T02:09:26.033Z,501.00
2023-01-13T02:10:26.031Z,500.00
2023-01-13T02:11:26.019Z,512.00
2023-01-13T02:12:26.016Z,505.00
2023-01-13T02:13:25.999Z,513.00
2023-01-13T02:14:26.010Z,523.00
2023-01-13T02:15:25.980Z,504.00
2023-01-13T02:16:26.050Z,510.00
2023-01-13T02:17:25.969Z,509.00
2023-01-13T02:18:25.962Z,509.00
2023-01-13T02:19:25.946Z,501.00
2023-01-13T02:20:25.928Z,514.00
2023-01-13T02:21:25.925Z,511.00
2023-01-13T02:22:25.911Z,509.00
2023-01-13T02:23:25.909Z,502.00
2023-01-13T02:24:25.897Z,508.00
2023-01-13T02:25:25.897Z,507.00
2023-01-13T02:26:25.878Z,519.00
2023-01-13T02:27:25.872Z,512.00
2023-01-13T02:28:25.868Z,514.00
2023-01-13T02:29:25.847Z,507.00
2023-01-13T02:30:25.861Z,502.00
2023-01-13T02:31:25.951Z,515.00
2023-01-13T02:32:25.825Z,507.00
2023-01-13T02:33:25.816Z,512.00
2023-01-13T02:34:25.810Z,518.00
2023-01-13T02:35:25.798Z,509.00
2023-01-13T02:36:25.794Z,505.00
2023-01-13T02:37:25.772Z,510.00
2023-01-13T02:38:25.785Z,512.00
2023-01-13T02:39:25.763Z,508.00
2023-01-13T02:40:25.749Z,510.00
2023-01-13T02:41:25.749Z,503.00
2023-01-13T02:42:25.731Z,510.00
2023-01-13T02:43:25.724Z,513.00
2023-01-13T02:44:25.710Z,521.00
2023-01-13T02:45:25.775Z,511.00
2023-01-13T02:46:25.716Z,513.00
2023-01-13T02:47:25.695Z,509.00
2023-01-13T02:48:25.678Z,512.00
2023-01-13T02:49:25.671Z,505.00
2023-01-13T02:50:25.663Z,522.00
2023-01-13T02:51:25.687Z,520.00
2023-01-13T02:52:25.643Z,506.00
2023-01-13T02:53:25.632Z,510.00
2023-01-13T02:54:25.622Z,510.00
2023-01-13T02:55:25.618Z,500.00
2023-01-13T02:56:25.608Z,513.00
2023-01-13T02:57:25.604Z,514.00
2023-01-13T02:58:25.591Z,516.00
2023-01-13T02:59:25.578Z,513.00
2023-01-13T03:00:25.641Z,509.00
2023-01-13T03:01:25.694Z,513.00
2023-01-13T03:02:25.615Z,519.00
2023-01-13T03:03:25.548Z,506.00
2023-01-13T03:04:25.541Z,508.00
2023-01-13T03:05:25.528Z,510.00
2023-01-13T03:06:25.520Z,517.00
2023-01-13T03:07:25.515Z,519.00
2023-01-13T03:08:25.512Z,516.00
2023-01-13T03:09:25.496Z,516.00
2023-01-13T03:10:25.531Z,518.00
2023-01-13T03:11:25.489Z,513.00
2023-01-13T03:12:25.475Z,508.00
2023-01-13T03:13:25.460Z,508.00
2023-01-13T03:14:25.456Z,507.00
2023-01-13T03:15:25.446Z,506.00
2023-01-13T03:16:25.487Z,510.00
2023-01-13T03:17:25.429Z,510.00
2023-01-13T03:18:25.484Z,507.00
2023-01-13T03:19:25.406Z,512.00
2023-01-13T03:20:25.400Z,512.00
2023-01-13T03:21:25.397Z,517.00
2023-01-13T03:22:25.381Z,511.00
2023-01-13T03:23:25.374Z,514.00
2023-01-13T03:24:25.365Z,512.00
2023-01-13T03:25:25.364Z,515.00
2023-01-13T04:18:24.876Z,514.00
2023-01-13T04:47:24.612Z,526.00
2023-01-13T05:32:24.200Z,527.00
2023-01-13T06:30:23.701Z,551.00
2023-01-13T06:42:22.580Z,546.00
2023-01-13T06:58:23.468Z,565.00
2023-01-13T06:59:23.402Z,559.00
2023-01-13T07:15:23.517Z,640.00
2023-01-13T07:45:22.988Z,732.00
2023-01-13T07:48:22.976Z,719.00
2023-01-13T07:51:22.925Z,718.00
2023-01-13T07:53:22.984Z,711.00
2023-01-13T07:56:22.979Z,686.00
2023-01-13T07:59:22.982Z,708.00
2023-01-13T08:10:23.162Z,677.00
2023-01-13T08:29:22.621Z,657.00
2023-01-13T08:39:22.600Z,652.00
2023-01-13T08:40:21.484Z,647.00
2023-01-13T08:41:22.468Z,651.00
2023-01-13T08:44:22.518Z,647.00
2023-01-13T08:48:22.603Z,643.00
2023-01-13T08:50:22.412Z,645.00
2023-01-13T08:53:22.537Z,641.00
2023-01-13T09:11:22.550Z,646.00
2023-01-13T09:30:22.051Z,648.00
2023-01-13T09:37:22.054Z,652.00
2023-01-13T09:42:22.135Z,657.00
2023-01-13T09:47:22.068Z,651.00
2023-01-13T09:49:21.880Z,648.00
2023-01-13T09:51:22.061Z,652.00
2023-01-13T09:57:22.066Z,647.00
2023-01-13T09:58:21.896Z,647.00
2023-01-13T10:13:21.655Z,644.00
2023-01-13T10:24:21.522Z,644.00
2023-01-13T10:26:21.611Z,654.00
2023-01-13T10:28:21.486Z,651.00
2023-01-13T10:29:21.489Z,650.00
2023-01-13T10:30:21.623Z,649.00
2023-01-13T10:31:21.545Z,648.00
2023-01-13T10:32:21.443Z,653.00
2023-01-13T10:33:21.454Z,656.00
2023-01-13T10:34:21.434Z,653.00
2023-01-13T10:35:21.543Z,660.00
2023-01-13T10:36:21.571Z,658.00
2023-01-13T10:37:21.556Z,661.00
2023-01-13T10:40:21.375Z,663.00
2023-01-13T10:41:21.371Z,666.00
2023-01-13T10:42:21.555Z,683.00
2023-01-13T10:43:21.345Z,719.00
2023-01-13T10:44:21.348Z,728.00
2023-01-13T10:45:21.351Z,724.00
2023-01-13T10:47:21.565Z,760.00
2023-01-13T10:48:21.334Z,759.00
2023-01-13T10:50:21.302Z,786.00
2023-01-13T10:51:21.299Z,788.00
2023-01-13T10:54:21.305Z,793.00
2023-01-13T10:56:21.585Z,812.00
2023-01-13T10:57:21.238Z,850.00
2023-01-13T11:00:21.487Z,841.00
2023-01-13T11:01:21.727Z,848.00
2023-01-13T11:03:21.205Z,869.00
2023-01-13T11:05:21.180Z,877.00
2023-01-13T11:06:21.170Z,881.00
2023-01-13T11:07:21.137Z,894.00
2023-01-13T11:11:36.722Z,911.00
2023-01-13T11:14:21.119Z,913.00
2023-01-13T11:15:21.124Z,918.00
2023-01-13T11:16:21.234Z,923.00
2023-01-13T11:17:21.084Z,944.00
2023-01-13T11:19:21.254Z,933.00
2023-01-13T11:20:21.062Z,924.00
2023-01-13T11:21:21.062Z,945.00
2023-01-13T11:22:21.100Z,935.00
2023-01-13T11:23:21.092Z,942.00
2023-01-13T11:24:20.993Z,952.00
2023-01-13T11:25:20.976Z,933.00
2023-01-13T11:26:20.976Z,932.00
2023-01-13T11:27:20.975Z,924.00
2023-01-13T11:28:21.075Z,930.00
2023-01-13T11:29:20.952Z,926.00
2023-01-13T11:30:20.948Z,918.00
2023-01-13T11:31:20.998Z,917.00
2023-01-13T11:32:20.919Z,910.00
2023-01-13T11:33:20.913Z,918.00
2023-01-13T11:34:20.937Z,906.00
2023-01-13T11:35:20.914Z,924.00
2023-01-13T11:36:20.964Z,900.00
2023-01-13T11:38:20.856Z,896.00
2023-01-13T11:39:21.083Z,898.00
2023-01-13T11:40:20.847Z,887.00
2023-01-13T11:41:21.089Z,881.00
2023-01-13T11:42:21.088Z,889.00
2023-01-13T11:43:20.837Z,892.00
2023-01-13T11:44:20.804Z,891.00
2023-01-13T11:45:20.795Z,882.00
2023-01-13T11:46:20.823Z,873.00
2023-01-13T11:47:21.139Z,878.00
2023-01-13T11:48:20.768Z,879.00
2023-01-13T11:49:22.401Z,859.00
2023-01-13T11:50:20.785Z,722.00
2023-01-13T11:51:20.743Z,685.00
2023-01-13T11:52:21.092Z,661.00
2023-01-13T11:53:20.720Z,625.00
2023-01-13T11:54:21.088Z,609.00
2023-01-13T11:55:22.652Z,636.00
2023-01-13T11:56:20.721Z,637.00
2023-01-13T11:57:20.687Z,626.00
2023-01-13T11:58:20.685Z,603.00
2023-01-13T11:59:20.670Z,593.00
2023-01-13T12:00:20.682Z,608.00
2023-01-13T12:01:23.279Z,577.00
2023-01-13T12:02:20.701Z,578.00
2023-01-13T12:03:20.731Z,583.00
2023-01-13T12:05:20.623Z,623.00
2023-01-13T12:06:20.634Z,659.00
2023-01-13T12:07:23.021Z,680.00
2023-01-13T12:08:20.596Z,680.00
2023-01-13T12:09:20.605Z,679.00
2023-01-13T12:10:20.564Z,687.00
2023-01-13T12:11:20.560Z,708.00
2023-01-13T12:12:20.559Z,720.00
2023-01-13T12:13:20.573Z,735.00
2023-01-13T12:14:20.595Z,766.00
2023-01-13T12:16:20.592Z,791.00
2023-01-13T12:17:20.495Z,800.00
2023-01-13T12:18:20.499Z,823.00
2023-01-13T12:19:20.600Z,852.00
2023-01-13T12:20:20.488Z,882.00
2023-01-13T12:21:20.472Z,896.00
2023-01-13T12:22:20.482Z,903.00
2023-01-13T12:23:20.479Z,921.00
2023-01-13T12:24:20.625Z,935.00
2023-01-13T12:25:20.626Z,944.00
2023-01-13T12:26:20.422Z,955.00
2023-01-13T12:27:20.418Z,973.00
2023-01-13T12:28:20.476Z,995.00
2023-01-13T12:29:20.414Z,1014.00
2023-01-13T12:30:20.382Z,1015.00
2023-01-13T12:31:20.439Z,1034.00
2023-01-13T12:32:20.359Z,1042.00
2023-01-13T12:33:20.352Z,1049.00
2023-01-13T12:34:20.612Z,1067.00
2023-01-13T12:35:20.364Z,1093.00
2023-01-13T12:36:20.330Z,1104.00
2023-01-13T12:37:20.325Z,1138.00
2023-01-13T12:38:20.393Z,1158.00
2023-01-13T12:39:20.294Z,1159.00
2023-01-13T12:40:20.293Z,1133.00
2023-01-13T12:41:20.288Z,1146.00
2023-01-13T12:42:20.276Z,1151.00
2023-01-13T12:43:20.266Z,1148.00
2023-01-13T12:44:20.260Z,1161.00
2023-01-13T12:45:20.244Z,1190.00
2023-01-13T12:46:20.236Z,1173.00
2023-01-13T12:47:20.226Z,1243.00
2023-01-13T12:48:20.217Z,1240.00
2023-01-13T12:49:20.227Z,1255.00
2023-01-13T12:50:20.207Z,1278.00
2023-01-13T12:51:20.198Z,1285.00
2023-01-13T12:52:20.181Z,1276.00
2023-01-13T12:53:20.188Z,1282.00
2023-01-13T12:55:20.167Z,1308.00
2023-01-13T12:56:20.153Z,1311.00
2023-01-13T12:57:20.141Z,1200.00
2023-01-13T12:58:20.135Z,1142.00
2023-01-13T12:59:20.121Z,1046.00
2023-01-13T13:00:20.120Z,1020.00
2023-01-13T13:01:20.185Z,931.00
2023-01-13T13:02:20.298Z,835.00
2023-01-13T13:03:20.091Z,792.00
2023-01-13T13:04:20.103Z,701.00
2023-01-13T13:05:20.116Z,715.00
2023-01-13T13:06:20.114Z,661.00
2023-01-13T13:07:20.112Z,638.00
2023-01-13T13:08:20.044Z,629.00
2023-01-13T13:09:20.062Z,634.00
2023-01-13T13:10:20.054Z,616.00
2023-01-13T13:11:20.119Z,616.00
2023-01-13T13:12:20.019Z,610.00
2023-01-13T13:13:20.021Z,629.00
2023-01-13T13:14:19.994Z,629.00
2023-01-13T13:15:20.043Z,634.00
2023-01-13T13:16:20.050Z,632.00
2023-01-13T13:17:19.998Z,626.00
2023-01-13T13:18:19.957Z,615.00
2023-01-13T13:19:19.955Z,631.00
2023-01-13T13:20:19.945Z,624.00
2023-01-13T13:21:19.924Z,629.00
2023-01-13T13:22:19.920Z,631.00
2023-01-13T13:23:20.126Z,640.00
2023-01-13T13:24:20.125Z,638.00
2023-01-13T13:25:19.893Z,656.00
2023-01-13T13:26:19.923Z,649.00
2023-01-13T13:27:19.874Z,662.00
2023-01-13T13:28:19.865Z,663.00
2023-01-13T13:29:20.146Z,687.00
2023-01-13T13:30:19.856Z,704.00
2023-01-13T13:31:19.897Z,719.00
2023-01-13T13:32:19.831Z,713.00
2023-01-13T13:33:19.820Z,953.00
2023-01-13T13:35:19.799Z,700.00
2023-01-13T13:36:19.787Z,744.00
2023-01-13T13:37:19.781Z,776.00
2023-01-13T13:38:19.773Z,812.00
2023-01-13T13:39:19.770Z,817.00
2023-01-13T13:40:19.755Z,825.00
2023-01-13T13:41:19.753Z,848.00
2023-01-13T13:51:19.670Z,965.00
2023-01-13T13:55:19.692Z,1001.00
2023-01-13T13:58:19.668Z,1017.00
2023-01-13T15:04:18.975Z,1334.00
2023-01-13T19:10:16.874Z,831.00
2023-01-13T19:11:16.869Z,837.00
2023-01-13T19:12:16.863Z,851.00
2023-01-13T19:13:16.856Z,863.00
2023-01-13T19:14:16.851Z,849.00
2023-01-13T19:15:16.832Z,871.00
2023-01-13T19:16:16.824Z,866.00
2023-01-13T19:17:16.823Z,876.00
2023-01-13T19:18:16.832Z,883.00
2023-01-13T19:19:16.818Z,866.00
2023-01-13T19:20:16.803Z,891.00
2023-01-13T19:21:16.782Z,898.00
2023-01-13T19:22:16.778Z,901.00
2023-01-13T19:23:16.765Z,899.00
2023-01-13T19:24:16.760Z,914.00
2023-01-13T19:25:16.757Z,922.00
2023-01-13T19:26:16.744Z,930.00
2023-01-13T19:27:16.737Z,1348.00
2023-01-13T19:28:16.735Z,1621.00
2023-01-13T19:29:16.712Z,1318.00
2023-01-13T19:30:16.705Z,1177.00
2023-01-13T19:31:16.734Z,1112.00
2023-01-13T19:32:16.690Z,1082.00
2023-01-13T19:33:16.684Z,1069.00
2023-01-13T19:34:16.762Z,1052.00
2023-01-13T19:35:16.671Z,1043.00
2023-01-13T19:36:16.652Z,1036.00
2023-01-13T19:37:16.643Z,1039.00
2023-01-13T19:38:16.644Z,1018.00
2023-01-13T19:39:16.628Z,1009.00
2023-01-13T19:40:16.647Z,1005.00
2023-01-13T19:41:16.616Z,1017.00
2023-01-13T19:42:16.602Z,1029.00
2023-01-13T19:43:16.597Z,1005.00
2023-01-13T19:44:16.583Z,1010.00
2023-01-13T19:45:16.583Z,1026.00
2023-01-13T19:46:16.598Z,1015.00
2023-01-13T19:47:16.560Z,1024.00
2023-01-13T19:48:16.571Z,1031.00
2023-01-13T19:49:16.544Z,1031.00
2023-01-13T19:50:16.663Z,1111.00
2023-01-13T19:51:16.533Z,1175.00
2023-01-13T19:52:16.523Z,1120.00
2023-01-13T19:53:16.512Z,1116.00
2023-01-13T19:54:16.502Z,1097.00
2023-01-13T19:55:16.493Z,1115.00
2023-01-13T19:56:16.488Z,1097.00
2023-01-13T19:57:16.484Z,1078.00
2023-01-13T19:58:16.463Z,1071.00
2023-01-13T19:59:16.455Z,1087.00
2023-01-13T20:00:16.445Z,1064.00
2023-01-13T20:01:16.546Z,1048.00
2023-01-13T20:02:16.563Z,1029.00
2023-01-13T20:03:16.425Z,1030.00
2023-01-13T20:04:16.420Z,1019.00
2023-01-13T20:05:16.409Z,1005.00
2023-01-13T20:06:16.427Z,1011.00
2023-01-13T20:07:16.402Z,995.00
2023-01-13T20:08:16.406Z,970.00
2023-01-13T20:09:16.381Z,973.00
2023-01-13T20:10:16.363Z,974.00
2023-01-13T20:11:16.356Z,947.00
2023-01-13T20:12:16.353Z,954.00
2023-01-13T20:13:16.345Z,960.00
2023-01-13T20:14:16.341Z,935.00
2023-01-13T20:15:16.415Z,939.00
2023-01-13T20:16:16.375Z,943.00
2023-01-13T20:17:16.313Z,929.00
2023-01-13T20:18:16.302Z,937.00
2023-01-13T20:19:16.289Z,938.00
2023-01-13T20:20:16.287Z,941.00
2023-01-13T20:21:16.275Z,947.00
2023-01-13T20:22:16.295Z,941.00
2023-01-13T20:23:16.254Z,933.00
2023-01-13T20:24:16.243Z,923.00
2023-01-13T20:25:16.307Z,924.00
2023-01-13T20:26:16.227Z,918.00
2023-01-13T20:27:16.222Z,913.00
2023-01-13T20:28:16.209Z,903.00
2023-01-13T20:29:16.206Z,892.00
2023-01-13T20:30:16.189Z,888.00
2023-01-13T20:31:16.224Z,886.00
2023-01-13T20:32:16.189Z,884.00
2023-01-13T20:33:16.168Z,880.00
2023-01-13T20:34:16.171Z,878.00
2023-01-13T20:35:16.156Z,867.00
2023-01-13T20:36:16.149Z,861.00
2023-01-13T20:37:16.130Z,852.00
2023-01-13T20:38:16.152Z,849.00
2023-01-13T20:39:16.122Z,849.00
2023-01-13T20:40:16.106Z,828.00
2023-01-13T20:41:16.103Z,838.00
2023-01-13T20:42:16.089Z,841.00
2023-01-13T20:43:17.662Z,817.00
2023-01-13T21:59:15.607Z,640.00
2023-01-13T22:00:15.607Z,639.00
2023-01-13T22:01:15.686Z,636.00
2023-01-13T22:02:23.770Z,638.00
